createdAt,value
2016-03-04T00:00:24.541Z,0
2016-03-04T00:01:24.653Z,0
2016-03-04T00:02:24.688Z,0
2016-03-04T00:03:24.706Z,0
2016-03-04T00:04:24.771Z,0
2016-03-04T00:05:24.835Z,0
2016-03-04T00:06:24.854Z,0
2016-03-04T00:07:24.919Z,0
2016-03-04T00:08:24.985Z,0
2016-03-04T00:09:25.004Z,0
2016-03-04T00:10:25.069Z,0
2016-03-04T00:11:25.149Z,0
2016-03-04T00:12:25.168Z,0
2016-03-04T00:13:25.201Z,0
2016-03-04T00:14:25.298Z,0
2016-03-04T00:15:25.332Z,0
2016-03-04T00:16:25.412Z,0
2016-03-04T00:17:25.431Z,0
2016-03-04T00:18:25.465Z,0
2016-03-04T00:19:25.545Z,0
2016-03-04T00:20:25.579Z,0
2016-03-04T00:21:25.598Z,0
2016-03-04T00:22:25.725Z,0
2016-03-04T00:23:25.744Z,0
2016-03-04T00:24:25.794Z,0
2016-03-04T00:25:25.843Z,0
2016-03-04T00:26:25.909Z,0
2016-03-04T00:27:25.941Z,0
2016-03-04T00:28:25.992Z,0
2016-03-04T00:29:26.025Z,0
2016-03-04T00:30:26.122Z,0
2016-03-04T00:31:26.004Z,0
2016-03-04T00:32:26.168Z,0
2016-03-04T00:33:26.296Z,0
2016-03-04T00:34:26.315Z,0
2016-03-04T00:35:26.349Z,0
2016-03-04T00:36:26.398Z,0
2016-03-04T00:37:26.462Z,0
2016-03-04T00:38:26.481Z,0
2016-03-04T00:39:26.547Z,0
2016-03-04T00:40:26.581Z,0
2016-03-04T00:41:26.677Z,0
2016-03-04T00:42:26.726Z,0
2016-03-04T00:43:26.729Z,0
2016-03-04T00:44:26.809Z,0
2016-03-04T00:45:26.875Z,0
2016-03-04T00:46:26.894Z,0
2016-03-04T00:47:26.959Z,0
2016-03-04T00:48:27.025Z,0
2016-03-04T00:49:27.058Z,0
2016-03-04T00:50:27.092Z,0
2016-03-04T00:51:27.172Z,0
2016-03-04T00:52:27.207Z,0
2016-03-04T00:53:27.288Z,0
2016-03-04T00:54:27.306Z,0
2016-03-04T00:55:27.356Z,0
2016-03-04T00:56:27.281Z,0
2016-03-04T00:57:27.439Z,0
2016-03-04T00:58:27.520Z,0
2016-03-04T00:59:27.601Z,0
2016-03-04T01:00:27.620Z,0
2016-03-04T01:01:27.653Z,0
2016-03-04T01:02:27.719Z,0
2016-03-04T01:03:27.769Z,0
2016-03-04T01:04:27.833Z,0
2016-03-04T01:05:27.900Z,0
2016-03-04T01:06:27.902Z,0
2016-03-04T01:07:27.983Z,0
2016-03-04T01:08:28.016Z,0
2016-03-04T01:09:28.050Z,0
2016-03-04T01:10:28.147Z,0
2016-03-04T01:11:28.197Z,0
2016-03-04T01:12:28.199Z,0
2016-03-04T01:13:28.296Z,0
2016-03-04T01:14:28.346Z,0
2016-03-04T01:15:28.363Z,0
2016-03-04T01:16:28.476Z,0
2016-03-04T01:17:28.525Z,0
2016-03-04T01:18:28.512Z,0
2016-03-04T01:19:28.576Z,0
2016-03-04T01:20:28.627Z,0
2016-03-04T01:21:28.707Z,0
2016-03-04T01:22:28.742Z,0
2016-03-04T01:23:28.759Z,0
2016-03-04T01:24:28.840Z,0
2016-03-04T01:25:28.906Z,0
2016-03-04T01:26:28.924Z,0
2016-03-04T01:27:29.005Z,0
2016-03-04T01:28:29.070Z,0
2016-03-04T01:29:29.073Z,0
2016-03-04T01:30:29.138Z,0
2016-03-04T01:31:29.047Z,0
2016-03-04T01:32:29.269Z,0
2016-03-04T01:33:29.350Z,0
2016-03-04T01:34:29.336Z,0
2016-03-04T01:35:29.245Z,0
2016-03-04T01:36:29.466Z,0
2016-03-04T01:37:29.500Z,0
2016-03-04T01:38:29.534Z,0
2016-03-04T01:39:29.631Z,0
2016-03-04T01:40:29.649Z,0
2016-03-04T01:41:29.683Z,0
2016-03-04T01:42:29.810Z,0
2016-03-04T01:43:29.813Z,0
2016-03-04T01:44:29.847Z,0
2016-03-04T01:45:29.929Z,0
2016-03-04T01:46:29.963Z,0
2016-03-04T01:47:29.996Z,0
2016-03-04T01:48:30.077Z,0
2016-03-04T01:49:30.143Z,0
2016-03-04T01:50:30.160Z,0
2016-03-04T01:51:30.209Z,0
2016-03-04T01:52:30.291Z,0
2016-03-04T01:53:30.294Z,0
2016-03-04T01:54:30.343Z,0
2016-03-04T01:55:30.439Z,0
2016-03-04T01:56:30.458Z,0
2016-03-04T01:57:30.554Z,0
2016-03-04T01:58:30.541Z,0
2016-03-04T01:59:30.606Z,0
2016-03-04T02:00:30.687Z,0
2016-03-04T02:01:30.706Z,0
2016-03-04T02:02:30.755Z,0
2016-03-04T02:03:30.837Z,0
2016-03-04T02:04:30.855Z,0
2016-03-04T02:05:30.779Z,0
2016-03-04T02:06:31.000Z,0
2016-03-04T02:07:31.018Z,0
2016-03-04T02:08:31.036Z,0
2016-03-04T02:09:31.133Z,0
2016-03-04T02:10:31.151Z,0
2016-03-04T02:11:31.263Z,0
2016-03-04T02:12:31.110Z,0
2016-03-04T02:13:31.315Z,0
2016-03-04T02:14:31.396Z,0
2016-03-04T02:15:31.446Z,0
2016-03-04T02:16:31.465Z,0
2016-03-04T02:17:31.545Z,0
2016-03-04T02:18:31.595Z,0
2016-03-04T02:19:31.629Z,0
2016-03-04T02:20:31.709Z,0
2016-03-04T02:21:31.759Z,0
2016-03-04T02:22:31.777Z,0
2016-03-04T02:23:31.842Z,0
2016-03-04T02:24:31.876Z,0
2016-03-04T02:25:31.957Z,0
2016-03-04T02:26:32.022Z,0
2016-03-04T02:27:32.030Z,0
2016-03-04T02:28:32.110Z,0
2016-03-04T02:29:32.175Z,0
2016-03-04T02:30:32.178Z,0
2016-03-04T02:31:32.244Z,0
2016-03-04T02:32:32.324Z,0
2016-03-04T02:33:32.327Z,0
2016-03-04T02:34:32.377Z,0
2016-03-04T02:35:32.474Z,0
2016-03-04T02:36:32.523Z,0
2016-03-04T02:37:32.572Z,0
2016-03-04T02:38:32.590Z,0
2016-03-04T02:39:32.640Z,0
2016-03-04T02:40:32.737Z,0
2016-03-04T02:41:32.723Z,0
2016-03-04T02:42:32.789Z,0
2016-03-04T02:43:32.870Z,0
2016-03-04T02:44:32.887Z,0
2016-03-04T02:45:32.922Z,0
2016-03-04T02:46:33.018Z,0
2016-03-04T02:47:33.067Z,0
2016-03-04T02:48:33.117Z,0
2016-03-04T02:49:33.136Z,0
2016-03-04T02:50:33.201Z,0
2016-03-04T02:51:33.281Z,0
2016-03-04T02:52:33.316Z,0
2016-03-04T02:53:33.364Z,0
2016-03-04T02:54:33.430Z,0
2016-03-04T02:55:33.449Z,0
2016-03-04T02:56:33.498Z,0
2016-03-04T02:57:33.595Z,0
2016-03-04T02:58:33.660Z,0
2016-03-04T02:59:33.647Z,0
2016-03-04T03:00:33.744Z,0
2016-03-04T03:01:33.747Z,0
2016-03-04T03:02:33.827Z,0
2016-03-04T03:03:33.877Z,0
2016-03-04T03:04:33.910Z,0
2016-03-04T03:05:33.991Z,0
2016-03-04T03:06:34.040Z,0
2016-03-04T03:07:34.059Z,0
2016-03-04T03:08:34.140Z,0
2016-03-04T03:09:34.190Z,0
2016-03-04T03:10:34.255Z,0
2016-03-04T03:11:34.273Z,0
2016-03-04T03:12:34.337Z,0
2016-03-04T03:13:34.356Z,0
2016-03-04T03:14:34.454Z,0
2016-03-04T03:15:34.456Z,0
2016-03-04T03:16:34.536Z,0
2016-03-04T03:17:34.601Z,0
2016-03-04T03:18:34.620Z,0
2016-03-04T03:19:34.684Z,0
2016-03-04T03:20:34.750Z,0
2016-03-04T03:21:34.769Z,0
2016-03-04T03:22:34.834Z,0
2016-03-04T03:23:34.930Z,0
2016-03-04T03:24:34.948Z,0
2016-03-04T03:25:34.997Z,0
2016-03-04T03:26:35.078Z,0
2016-03-04T03:27:35.145Z,0
2016-03-04T03:28:35.147Z,0
2016-03-04T03:29:35.244Z,0
2016-03-04T03:30:35.277Z,0
2016-03-04T03:31:35.327Z,0
2016-03-04T03:32:35.360Z,0
2016-03-04T03:33:35.410Z,0
2016-03-04T03:34:35.460Z,0
2016-03-04T03:35:35.510Z,0
2016-03-04T03:36:35.590Z,0
2016-03-04T03:37:35.608Z,0
2016-03-04T03:38:35.673Z,0
2016-03-04T03:39:35.723Z,0
2016-03-04T03:40:35.789Z,0
2016-03-04T03:41:35.823Z,0
2016-03-04T03:42:35.872Z,0
2016-03-04T03:43:35.937Z,0
2016-03-04T03:44:36.049Z,0
2016-03-04T03:45:36.020Z,0
2016-03-04T03:46:36.054Z,0
2016-03-04T03:47:36.151Z,0
2016-03-04T03:48:36.170Z,0
2016-03-04T03:49:36.266Z,0
2016-03-04T03:50:36.284Z,0
2016-03-04T03:51:36.333Z,0
2016-03-04T03:52:36.367Z,0
2016-03-04T03:53:36.434Z,0
2016-03-04T03:54:36.466Z,0
2016-03-04T03:55:36.531Z,0
2016-03-04T03:56:36.597Z,0
2016-03-04T03:57:36.631Z,0
2016-03-04T03:58:36.696Z,0
2016-03-04T03:59:36.746Z,0
2016-03-04T04:00:36.780Z,0
2016-03-04T04:01:36.860Z,0
2016-03-04T04:02:36.894Z,0
2016-03-04T04:03:36.928Z,0
2016-03-04T04:04:37.024Z,0
2016-03-04T04:05:37.012Z,0
2016-03-04T04:06:37.124Z,0
2016-03-04T04:07:37.158Z,0
2016-03-04T04:08:37.177Z,0
2016-03-04T04:09:37.241Z,0
2016-03-04T04:10:37.307Z,0
2016-03-04T04:11:37.356Z,0
2016-03-04T04:12:37.406Z,0
2016-03-04T04:13:37.439Z,0
2016-03-04T04:14:37.537Z,0
2016-03-04T04:15:37.555Z,0
2016-03-04T04:16:37.604Z,0
2016-03-04T04:17:37.638Z,0
2016-03-04T04:18:37.703Z,0
2016-03-04T04:19:37.753Z,0
2016-03-04T04:20:37.817Z,0
2016-03-04T04:21:37.868Z,0
2016-03-04T04:22:37.886Z,0
2016-03-04T04:23:37.951Z,0
2016-03-04T04:24:38.016Z,0
2016-03-04T04:25:38.034Z,0
2016-03-04T04:26:37.333Z,0
2016-03-04T04:27:38.150Z,0
2016-03-04T04:28:38.215Z,0
2016-03-04T04:29:38.280Z,0
2016-03-04T04:30:38.329Z,0
2016-03-04T04:31:38.363Z,0
2016-03-04T04:32:38.413Z,0
2016-03-04T04:33:38.430Z,0
2016-03-04T04:34:38.511Z,0
2016-03-04T04:35:38.624Z,0
2016-03-04T04:36:38.642Z,0
2016-03-04T04:37:37.894Z,0
2016-03-04T04:38:38.710Z,0
2016-03-04T04:39:38.759Z,0
2016-03-04T04:40:38.809Z,0
2016-03-04T04:41:38.874Z,0
2016-03-04T04:42:38.907Z,0
2016-03-04T04:43:38.958Z,0
2016-03-04T04:44:38.992Z,0
2016-03-04T04:45:39.041Z,0
2016-03-04T04:46:39.122Z,0
2016-03-04T04:47:39.188Z,0
2016-03-04T04:48:39.206Z,0
2016-03-04T04:49:39.287Z,0
2016-03-04T04:50:39.336Z,0
2016-03-04T04:51:39.401Z,0
2016-03-04T04:52:39.277Z,0
2016-03-04T04:53:39.558Z,0
2016-03-04T04:54:39.673Z,0
2016-03-04T04:55:39.567Z,0
2016-03-04T04:56:39.883Z,0
2016-03-04T04:57:39.682Z,0
2016-03-04T04:58:39.779Z,0
2016-03-04T04:59:39.765Z,0
2016-03-04T05:00:39.815Z,0
2016-03-04T05:01:39.879Z,0
2016-03-04T05:02:39.898Z,0
2016-03-04T05:03:39.980Z,0
2016-03-04T05:04:40.045Z,0
2016-03-04T05:05:40.079Z,0
2016-03-04T05:06:40.128Z,0
2016-03-04T05:07:40.193Z,0
2016-03-04T05:08:40.228Z,0
2016-03-04T05:09:40.262Z,0
2016-03-04T05:10:40.358Z,0
2016-03-04T05:11:40.376Z,0
2016-03-04T05:12:40.456Z,0
2016-03-04T05:13:40.475Z,0
2016-03-04T05:14:40.539Z,0
2016-03-04T05:15:40.575Z,0
2016-03-04T05:16:40.640Z,0
2016-03-04T05:17:40.705Z,0
2016-03-04T05:18:40.739Z,0
2016-03-04T05:19:40.772Z,0
2016-03-04T05:20:40.853Z,0
2016-03-04T05:21:40.872Z,0
2016-03-04T05:22:40.984Z,0
2016-03-04T05:23:40.971Z,0
2016-03-04T05:24:41.052Z,0
2016-03-04T05:25:41.101Z,0
2016-03-04T05:26:41.135Z,0
2016-03-04T05:27:41.215Z,0
2016-03-04T05:28:41.250Z,0
2016-03-04T05:29:41.300Z,0
2016-03-04T05:30:41.333Z,0
2016-03-04T05:31:41.399Z,0
2016-03-04T05:32:41.417Z,0
2016-03-04T05:33:41.513Z,0
2016-03-04T05:34:41.563Z,0
2016-03-04T05:35:41.612Z,0
2016-03-04T05:36:41.490Z,0
2016-03-04T05:37:41.727Z,0
2016-03-04T05:38:41.745Z,0
2016-03-04T05:39:41.811Z,0
2016-03-04T05:40:41.828Z,0
2016-03-04T05:41:41.910Z,0
2016-03-04T05:42:41.960Z,0
2016-03-04T05:43:42.009Z,0
2016-03-04T05:44:42.059Z,0
2016-03-04T05:45:41.342Z,0
2016-03-04T05:46:42.189Z,0
2016-03-04T05:47:42.191Z,0
2016-03-04T05:48:42.241Z,0
2016-03-04T05:49:42.291Z,0
2016-03-04T05:50:42.356Z,0
2016-03-04T05:51:42.421Z,0
2016-03-04T05:52:42.439Z,0
2016-03-04T05:53:42.535Z,0
2016-03-04T05:54:42.414Z,0
2016-03-04T05:55:42.619Z,0
2016-03-04T05:56:42.653Z,0
2016-03-04T05:57:42.735Z,0
2016-03-04T05:58:42.783Z,0
2016-03-04T05:59:42.802Z,0
2016-03-04T06:00:42.851Z,0
2016-03-04T06:01:42.932Z,0
2016-03-04T06:02:42.951Z,0
2016-03-04T06:03:42.985Z,0
2016-03-04T06:04:43.066Z,0
2016-03-04T06:05:43.131Z,0
2016-03-04T06:06:43.149Z,4
2016-03-04T06:07:43.195Z,0
2016-03-04T06:08:43.280Z,0
2016-03-04T06:09:43.270Z,0
2016-03-04T06:10:43.354Z,0
2016-03-04T06:11:43.359Z,0
2016-03-04T06:12:43.397Z,0
2016-03-04T06:13:43.301Z,4
2016-03-04T06:14:43.471Z,4
2016-03-04T06:15:43.548Z,4
2016-03-04T06:16:43.593Z,4
2016-03-04T06:17:43.639Z,4
2016-03-04T06:18:43.671Z,4
2016-03-04T06:19:43.735Z,4
2016-03-04T06:20:43.767Z,4
2016-03-04T06:21:43.815Z,8
2016-03-04T06:22:43.910Z,8
2016-03-04T06:23:43.162Z,12
2016-03-04T06:24:43.976Z,12
2016-03-04T06:25:44.056Z,12
2016-03-04T06:26:44.074Z,12
2016-03-04T06:27:44.138Z,12
2016-03-04T06:28:44.251Z,12
2016-03-04T06:29:44.223Z,16
2016-03-04T06:30:44.288Z,16
2016-03-04T06:31:44.321Z,12
2016-03-04T06:32:44.356Z,12
2016-03-04T06:33:44.436Z,16
2016-03-04T06:34:44.470Z,16
2016-03-04T06:35:44.582Z,16
2016-03-04T06:36:44.570Z,16
2016-03-04T06:37:44.650Z,20
2016-03-04T06:38:44.653Z,20
2016-03-04T06:39:44.750Z,24
2016-03-04T06:40:44.783Z,24
2016-03-04T06:41:44.864Z,28
2016-03-04T06:42:44.883Z,32
2016-03-04T06:43:44.948Z,32
2016-03-04T06:44:44.981Z,32
2016-03-04T06:45:45.062Z,36
2016-03-04T06:46:45.064Z,40
2016-03-04T06:47:45.146Z,36
2016-03-04T06:48:45.194Z,40
2016-03-04T06:49:45.214Z,44
2016-03-04T06:50:45.295Z,44
2016-03-04T06:51:45.344Z,44
2016-03-04T06:52:45.363Z,52
2016-03-04T06:53:45.427Z,56
2016-03-04T06:54:45.493Z,60
2016-03-04T06:55:45.543Z,64
2016-03-04T06:56:45.591Z,68
2016-03-04T06:57:45.641Z,72
2016-03-04T06:58:45.676Z,76
2016-03-04T06:59:45.740Z,80
2016-03-04T07:00:45.806Z,92
2016-03-04T07:01:45.854Z,100
2016-03-04T07:02:45.890Z,108
2016-03-04T07:03:45.923Z,112
2016-03-04T07:04:46.004Z,120
2016-03-04T07:05:45.913Z,128
2016-03-04T07:06:46.119Z,136
2016-03-04T07:07:46.121Z,140
2016-03-04T07:08:46.186Z,144
2016-03-04T07:09:46.251Z,152
2016-03-04T07:10:46.114Z,152
2016-03-04T07:11:46.351Z,148
2016-03-04T07:12:46.385Z,188
2016-03-04T07:13:46.435Z,164
2016-03-04T07:14:46.500Z,220
2016-03-04T07:15:46.408Z,216
2016-03-04T07:16:46.583Z,236
2016-03-04T07:17:46.664Z,228
2016-03-04T07:18:46.682Z,228
2016-03-04T07:19:46.763Z,244
2016-03-04T07:20:46.797Z,268
2016-03-04T07:21:46.878Z,296
2016-03-04T07:22:46.880Z,280
2016-03-04T07:23:46.977Z,244
2016-03-04T07:24:46.996Z,212
2016-03-04T07:25:47.029Z,196
2016-03-04T07:26:47.126Z,172
2016-03-04T07:27:47.143Z,156
2016-03-04T07:28:47.193Z,136
2016-03-04T07:29:47.259Z,128
2016-03-04T07:30:47.292Z,112
2016-03-04T07:31:47.358Z,96
2016-03-04T07:32:47.407Z,84
2016-03-04T07:33:47.457Z,80
2016-03-04T07:34:47.507Z,76
2016-03-04T07:35:47.540Z,80
2016-03-04T07:36:47.590Z,64
2016-03-04T07:37:47.686Z,60
2016-03-04T07:38:47.721Z,60
2016-03-04T07:39:47.723Z,64
2016-03-04T07:40:47.820Z,60
2016-03-04T07:41:47.853Z,48
2016-03-04T07:42:47.872Z,48
2016-03-04T07:43:47.937Z,48
2016-03-04T07:44:47.986Z,52
2016-03-04T07:45:48.053Z,52
2016-03-04T07:46:48.101Z,48
2016-03-04T07:47:48.135Z,48
2016-03-04T07:48:48.185Z,48
2016-03-04T07:49:48.234Z,48
2016-03-04T07:50:48.283Z,52
2016-03-04T07:51:48.349Z,52
2016-03-04T07:52:48.398Z,52
2016-03-04T07:53:48.433Z,48
2016-03-04T07:54:48.482Z,52
2016-03-04T07:55:48.532Z,52
2016-03-04T07:56:48.597Z,60
2016-03-04T07:57:48.630Z,56
2016-03-04T07:58:48.680Z,60
2016-03-04T07:59:48.746Z,56
2016-03-04T08:00:48.811Z,48
2016-03-04T08:01:48.829Z,48
2016-03-04T08:02:48.878Z,48
2016-03-04T08:03:48.944Z,44
2016-03-04T08:04:48.962Z,40
2016-03-04T08:05:49.043Z,36
2016-03-04T08:06:49.077Z,36
2016-03-04T08:07:49.142Z,40
2016-03-04T08:08:49.223Z,32
2016-03-04T08:09:49.209Z,32
2016-03-04T08:10:49.276Z,32
2016-03-04T08:11:49.340Z,32
2016-03-04T08:12:49.374Z,32
2016-03-04T08:13:49.408Z,32
2016-03-04T08:14:49.489Z,32
2016-03-04T08:15:49.539Z,32
2016-03-04T08:16:49.589Z,32
2016-03-04T08:17:49.639Z,32
2016-03-04T08:18:49.687Z,44
2016-03-04T08:19:49.736Z,44
2016-03-04T08:20:49.786Z,44
2016-03-04T08:21:49.805Z,44
2016-03-04T08:22:49.902Z,48
2016-03-04T08:23:49.966Z,44
2016-03-04T08:24:50.000Z,48
2016-03-04T08:25:50.065Z,48
2016-03-04T08:26:50.083Z,52
2016-03-04T08:27:50.118Z,48
2016-03-04T08:28:50.168Z,48
2016-03-04T08:29:50.232Z,52
2016-03-04T08:30:50.251Z,52
2016-03-04T08:31:50.332Z,52
2016-03-04T08:32:49.631Z,52
2016-03-04T08:33:50.431Z,48
2016-03-04T08:34:50.449Z,48
2016-03-04T08:35:50.545Z,48
2016-03-04T08:36:50.564Z,52
2016-03-04T08:37:50.613Z,48
2016-03-04T08:38:50.710Z,52
2016-03-04T08:39:50.712Z,48
2016-03-04T08:40:50.746Z,52
2016-03-04T08:41:50.828Z,52
2016-03-04T08:42:50.861Z,52
2016-03-04T08:43:50.926Z,56
2016-03-04T08:44:50.961Z,56
2016-03-04T08:45:51.025Z,56
2016-03-04T08:46:51.059Z,56
2016-03-04T08:47:51.140Z,52
2016-03-04T08:48:51.159Z,52
2016-03-04T08:49:51.239Z,52
2016-03-04T08:50:51.289Z,52
2016-03-04T08:51:51.323Z,52
2016-03-04T08:52:51.388Z,52
2016-03-04T08:53:51.421Z,52
2016-03-04T08:54:51.441Z,52
2016-03-04T08:55:51.505Z,56
2016-03-04T08:56:51.586Z,56
2016-03-04T08:57:51.621Z,56
2016-03-04T08:58:51.654Z,56
2016-03-04T08:59:51.735Z,56
2016-03-04T09:00:51.629Z,60
2016-03-04T09:01:51.834Z,60
2016-03-04T09:02:51.868Z,60
2016-03-04T09:03:51.917Z,64
2016-03-04T09:04:51.968Z,64
2016-03-04T09:05:52.017Z,68
2016-03-04T09:06:52.067Z,64
2016-03-04T09:07:52.133Z,64
2016-03-04T09:08:52.150Z,64
2016-03-04T09:09:52.232Z,64
2016-03-04T09:10:52.266Z,64
2016-03-04T09:11:52.346Z,64
2016-03-04T09:12:52.381Z,64
2016-03-04T09:13:52.414Z,68
2016-03-04T09:14:52.464Z,64
2016-03-04T09:15:52.560Z,60
2016-03-04T09:16:52.579Z,64
2016-03-04T09:17:52.596Z,64
2016-03-04T09:18:52.677Z,64
2016-03-04T09:19:52.711Z,64
2016-03-04T09:20:52.746Z,64
2016-03-04T09:21:52.842Z,64
2016-03-04T09:22:52.876Z,64
2016-03-04T09:23:52.926Z,64
2016-03-04T09:24:52.975Z,64
2016-03-04T09:25:53.025Z,64
2016-03-04T09:26:53.059Z,64
2016-03-04T09:27:53.123Z,68
2016-03-04T09:28:53.220Z,64
2016-03-04T09:29:53.286Z,68
2016-03-04T09:30:53.288Z,64
2016-03-04T09:31:53.354Z,64
2016-03-04T09:32:53.372Z,60
2016-03-04T09:33:53.436Z,60
2016-03-04T09:34:53.486Z,60
2016-03-04T09:35:53.520Z,52
2016-03-04T09:36:53.555Z,56
2016-03-04T09:37:53.635Z,52
2016-03-04T09:38:53.669Z,52
2016-03-04T09:39:53.734Z,48
2016-03-04T09:40:53.769Z,48
2016-03-04T09:41:53.818Z,40
2016-03-04T09:42:53.883Z,48
2016-03-04T09:43:53.948Z,44
2016-03-04T09:44:53.966Z,40
2016-03-04T09:45:54.047Z,40
2016-03-04T09:46:54.096Z,36
2016-03-04T09:47:54.130Z,36
2016-03-04T09:48:54.196Z,36
2016-03-04T09:49:54.121Z,32
2016-03-04T09:50:54.280Z,36
2016-03-04T09:51:54.313Z,32
2016-03-04T09:52:54.378Z,32
2016-03-04T09:53:54.429Z,32
2016-03-04T09:54:54.509Z,36
2016-03-04T09:55:54.526Z,36
2016-03-04T09:56:54.609Z,36
2016-03-04T09:57:54.642Z,36
2016-03-04T09:58:54.676Z,36
2016-03-04T09:59:54.757Z,36
2016-03-04T10:00:54.806Z,32
2016-03-04T10:01:54.825Z,36
2016-03-04T10:02:55.859Z,32
2016-03-04T10:03:54.939Z,36
2016-03-04T10:04:54.988Z,40
2016-03-04T10:05:55.039Z,40
2016-03-04T10:06:55.103Z,44
2016-03-04T10:07:55.153Z,44
2016-03-04T10:08:55.219Z,48
2016-03-04T10:09:55.283Z,48
2016-03-04T10:10:55.286Z,48
2016-03-04T10:11:55.367Z,48
2016-03-04T10:12:55.385Z,48
2016-03-04T10:13:55.263Z,52
2016-03-04T10:14:55.500Z,48
2016-03-04T10:15:55.534Z,48
2016-03-04T10:16:55.584Z,48
2016-03-04T10:17:55.649Z,44
2016-03-04T10:18:55.713Z,48
2016-03-04T10:19:56.202Z,48
2016-03-04T10:20:55.813Z,48
2016-03-04T10:21:55.846Z,48
2016-03-04T10:22:55.882Z,44
2016-03-04T10:23:55.962Z,44
2016-03-04T10:24:56.012Z,48
2016-03-04T10:25:56.076Z,48
2016-03-04T10:26:56.095Z,52
2016-03-04T10:27:56.176Z,52
2016-03-04T10:28:56.225Z,52
2016-03-04T10:29:56.275Z,52
2016-03-04T10:30:56.277Z,52
2016-03-04T10:31:56.359Z,48
2016-03-04T10:32:56.439Z,52
2016-03-04T10:33:56.458Z,52
2016-03-04T10:34:56.523Z,52
2016-03-04T10:35:56.634Z,56
2016-03-04T10:36:56.637Z,56
2016-03-04T10:37:56.656Z,56
2016-03-04T10:38:56.736Z,60
2016-03-04T10:39:56.770Z,60
2016-03-04T10:40:56.820Z,60
2016-03-04T10:41:56.885Z,64
2016-03-04T10:42:56.903Z,60
2016-03-04T10:43:56.218Z,60
2016-03-04T10:44:57.034Z,60
2016-03-04T10:45:57.052Z,56
2016-03-04T10:46:57.132Z,60
2016-03-04T10:47:57.167Z,56
2016-03-04T10:48:57.216Z,52
2016-03-04T10:49:57.297Z,56
2016-03-04T10:50:57.332Z,52
2016-03-04T10:51:57.366Z,52
2016-03-04T10:52:57.430Z,56
2016-03-04T10:53:57.480Z,60
2016-03-04T10:54:57.514Z,52
2016-03-04T10:55:57.595Z,52
2016-03-04T10:56:57.613Z,52
2016-03-04T10:57:57.679Z,52
2016-03-04T10:58:57.728Z,52
2016-03-04T10:59:57.761Z,52
2016-03-04T11:00:57.843Z,48
2016-03-04T11:01:57.767Z,48
2016-03-04T11:02:57.941Z,48
2016-03-04T11:03:57.992Z,48
2016-03-04T11:04:58.042Z,48
2016-03-04T11:05:58.106Z,48
2016-03-04T11:06:58.139Z,48
2016-03-04T11:07:58.253Z,48
2016-03-04T11:08:58.255Z,48
2016-03-04T11:09:58.288Z,48
2016-03-04T11:10:58.386Z,44
2016-03-04T11:11:58.403Z,40
2016-03-04T11:12:58.469Z,40
2016-03-04T11:13:58.503Z,40
2016-03-04T11:14:58.536Z,40
2016-03-04T11:15:58.649Z,40
2016-03-04T11:16:58.651Z,40
2016-03-04T11:17:58.685Z,40
2016-03-04T11:18:58.766Z,40
2016-03-04T11:19:58.784Z,36
2016-03-04T11:20:58.850Z,36
2016-03-04T11:21:58.883Z,40
2016-03-04T11:22:58.948Z,40
2016-03-04T11:23:59.030Z,40
2016-03-04T11:24:59.063Z,40
2016-03-04T11:25:59.098Z,40
2016-03-04T11:26:59.271Z,40
2016-03-04T11:27:59.229Z,44
2016-03-04T11:28:59.262Z,44
2016-03-04T11:29:59.326Z,44
2016-03-04T11:30:59.392Z,40
2016-03-04T11:31:59.426Z,40
2016-03-04T11:32:59.459Z,40
2016-03-04T11:33:59.509Z,40
2016-03-04T11:34:59.575Z,44
2016-03-04T11:35:59.625Z,44
2016-03-04T11:36:59.658Z,40
2016-03-04T11:37:59.723Z,40
2016-03-04T11:38:59.820Z,40
2016-03-04T11:39:59.806Z,40
2016-03-04T11:40:59.903Z,40
2016-03-04T11:41:59.953Z,44
2016-03-04T11:42:59.987Z,40
2016-03-04T11:44:00.021Z,40
2016-03-04T11:45:00.085Z,36
2016-03-04T11:46:00.120Z,36
2016-03-04T11:47:00.185Z,36
2016-03-04T11:48:00.250Z,36
2016-03-04T11:49:00.316Z,36
2016-03-04T11:50:00.366Z,36
2016-03-04T11:51:00.383Z,36
2016-03-04T11:52:00.432Z,36
2016-03-04T11:53:00.514Z,36
2016-03-04T11:54:00.548Z,36
2016-03-04T11:55:00.596Z,36
2016-03-04T11:56:00.646Z,32
2016-03-04T11:57:00.712Z,36
2016-03-04T11:58:00.746Z,32
2016-03-04T11:59:00.795Z,36
2016-03-04T12:00:00.845Z,36
2016-03-04T12:01:00.895Z,36
2016-03-04T12:02:00.975Z,36
2016-03-04T12:03:01.040Z,40
2016-03-04T12:04:01.106Z,36
2016-03-04T12:05:01.093Z,36
2016-03-04T12:06:01.173Z,36
2016-03-04T12:07:01.208Z,36
2016-03-04T12:08:01.272Z,36
2016-03-04T12:09:01.322Z,36
2016-03-04T12:10:01.372Z,32
2016-03-04T12:11:01.406Z,36
2016-03-04T12:12:01.455Z,36
2016-03-04T12:13:01.520Z,28
2016-03-04T12:14:01.586Z,40
2016-03-04T12:15:01.619Z,36
2016-03-04T12:16:01.669Z,36
2016-03-04T12:17:01.735Z,40
2016-03-04T12:18:01.753Z,36
2016-03-04T12:19:01.802Z,36
2016-03-04T12:20:01.868Z,36
2016-03-04T12:21:01.917Z,32
2016-03-04T12:22:01.966Z,32
2016-03-04T12:23:02.063Z,32
2016-03-04T12:24:02.081Z,32
2016-03-04T12:25:02.116Z,32
2016-03-04T12:26:02.180Z,32
2016-03-04T12:27:02.245Z,36
2016-03-04T12:28:02.280Z,36
2016-03-04T12:29:02.313Z,32
2016-03-04T12:30:02.379Z,28
2016-03-04T12:31:02.459Z,32
2016-03-04T12:32:02.479Z,32
2016-03-04T12:33:02.528Z,28
2016-03-04T12:34:02.608Z,32
2016-03-04T12:35:02.643Z,32
2016-03-04T12:36:02.675Z,32
2016-03-04T12:37:02.757Z,32
2016-03-04T12:38:02.775Z,32
2016-03-04T12:39:02.856Z,32
2016-03-04T12:40:02.906Z,32
2016-03-04T12:41:02.939Z,28
2016-03-04T12:42:03.036Z,32
2016-03-04T12:43:03.085Z,28
2016-03-04T12:44:03.089Z,32
2016-03-04T12:45:03.153Z,28
2016-03-04T12:46:03.266Z,28
2016-03-04T12:47:03.330Z,28
2016-03-04T12:48:03.364Z,28
2016-03-04T12:49:03.383Z,32
2016-03-04T12:50:03.448Z,32
2016-03-04T12:51:03.482Z,32
2016-03-04T12:52:03.547Z,28
2016-03-04T12:53:03.582Z,32
2016-03-04T12:54:03.599Z,28
2016-03-04T12:55:03.665Z,28
2016-03-04T12:56:03.746Z,32
2016-03-04T12:57:03.873Z,32
2016-03-04T12:58:03.798Z,28
2016-03-04T12:59:03.848Z,28
2016-03-04T13:00:03.913Z,28
2016-03-04T13:01:03.978Z,28
2016-03-04T13:02:03.996Z,28
2016-03-04T13:03:04.076Z,24
2016-03-04T13:04:04.111Z,24
2016-03-04T13:05:04.207Z,24
2016-03-04T13:06:04.320Z,16
2016-03-04T13:07:04.384Z,24
2016-03-04T13:08:04.434Z,24
2016-03-04T13:09:04.453Z,20
2016-03-04T13:10:04.423Z,20
2016-03-04T13:11:04.473Z,24
2016-03-04T13:12:04.523Z,24
2016-03-04T13:13:04.557Z,24
2016-03-04T13:14:04.653Z,20
2016-03-04T13:15:04.671Z,20
2016-03-04T13:16:04.736Z,24
2016-03-04T13:17:04.771Z,20
2016-03-04T13:18:04.820Z,24
2016-03-04T13:19:04.901Z,20
2016-03-04T13:20:05.030Z,24
2016-03-04T13:21:05.000Z,20
2016-03-04T13:22:05.050Z,20
2016-03-04T13:23:05.083Z,20
2016-03-04T13:24:05.133Z,20
2016-03-04T13:25:05.183Z,20
2016-03-04T13:26:04.514Z,16
2016-03-04T13:27:05.298Z,20
2016-03-04T13:28:05.393Z,16
2016-03-04T13:29:05.413Z,20
2016-03-04T13:30:05.509Z,16
2016-03-04T13:31:05.511Z,20
2016-03-04T13:32:05.545Z,20
2016-03-04T13:33:05.596Z,20
2016-03-04T13:34:05.676Z,20
2016-03-04T13:35:05.694Z,16
2016-03-04T13:36:05.776Z,20
2016-03-04T13:37:05.809Z,16
2016-03-04T13:38:05.874Z,20
2016-03-04T13:39:06.001Z,20
2016-03-04T13:40:06.051Z,20
2016-03-04T13:41:06.007Z,20
2016-03-04T13:42:06.056Z,20
2016-03-04T13:43:06.137Z,20
2016-03-04T13:44:06.155Z,20
2016-03-04T13:45:06.206Z,20
2016-03-04T13:46:06.099Z,16
2016-03-04T13:47:06.320Z,20
2016-03-04T13:48:06.447Z,20
2016-03-04T13:49:06.483Z,20
2016-03-04T13:50:06.469Z,16
2016-03-04T13:51:06.502Z,20
2016-03-04T13:52:06.552Z,20
2016-03-04T13:53:06.664Z,20
2016-03-04T13:54:06.746Z,20
2016-03-04T13:55:06.779Z,20
2016-03-04T13:56:06.751Z,20
2016-03-04T13:57:06.800Z,16
2016-03-04T13:58:06.882Z,20
2016-03-04T13:59:06.915Z,20
2016-03-04T14:00:06.980Z,20
2016-03-04T14:01:07.171Z,20
2016-03-04T14:02:07.126Z,20
2016-03-04T14:03:07.207Z,20
2016-03-04T14:04:07.178Z,16
2016-03-04T14:05:07.228Z,16
2016-03-04T14:06:07.262Z,16
2016-03-04T14:07:07.359Z,16
2016-03-04T14:08:07.361Z,16
2016-03-04T14:09:07.442Z,16
2016-03-04T14:10:07.507Z,16
2016-03-04T14:11:07.509Z,16
2016-03-04T14:12:07.450Z,16
2016-03-04T14:13:07.640Z,16
2016-03-04T14:14:07.674Z,16
2016-03-04T14:15:07.739Z,16
2016-03-04T14:16:07.805Z,16
2016-03-04T14:17:07.885Z,20
2016-03-04T14:18:07.935Z,20
2016-03-04T14:19:07.969Z,8
2016-03-04T14:20:08.019Z,8
2016-03-04T14:21:08.083Z,12
2016-03-04T14:22:08.117Z,8
2016-03-04T14:23:08.198Z,8
2016-03-04T14:24:08.232Z,8
2016-03-04T14:25:08.283Z,8
2016-03-04T14:26:08.378Z,8
2016-03-04T14:27:08.663Z,12
2016-03-04T14:28:08.462Z,12
2016-03-04T14:29:08.496Z,12